createdAt,value
2019-05-05T00:01:55.373Z,6.32
2019-05-05T00:04:46.956Z,6.39
2019-05-05T00:07:22.013Z,6.23
2019-05-05T00:09:51.729Z,6.13
2019-05-05T00:12:50.038Z,5.78
2019-05-05T00:15:41.827Z,5.96
2019-05-05T00:18:11.723Z,6.12
2019-05-05T00:20:40.378Z,6.26
2019-05-05T00:23:09.742Z,6.29
2019-05-05T00:25:37.890Z,6.29
2019-05-05T00:28:07.461Z,5.91
2019-05-05T00:30:36.721Z,5.98
2019-05-05T00:33:06.037Z,6.08
2019-05-05T00:35:35.329Z,5.97
2019-05-05T00:38:05.676Z,5.57
2019-05-05T00:40:35.262Z,5.88
2019-05-05T00:43:05.367Z,5.93
2019-05-05T00:45:36.295Z,5.93
2019-05-05T00:48:15.260Z,5.93
2019-05-05T00:50:44.991Z,5.91
2019-05-05T00:53:14.692Z,5.73
2019-05-05T00:55:44.603Z,6.00
2019-05-05T00:58:14.562Z,6.00
2019-05-05T01:00:49.899Z,5.84
2019-05-05T01:03:21.080Z,5.74
2019-05-05T01:05:58.491Z,5.89
2019-05-05T01:08:28.622Z,5.81
2019-05-05T01:10:58.632Z,5.56
2019-05-05T01:13:27.882Z,5.56
2019-05-05T01:15:57.168Z,5.73
2019-05-05T01:18:27.767Z,5.90
2019-05-05T01:20:56.916Z,5.60
2019-05-05T01:23:26.974Z,5.76
2019-05-05T01:25:56.323Z,5.81
2019-05-05T01:28:26.047Z,5.81
2019-05-05T01:30:59.165Z,5.53
2019-05-05T01:33:44.894Z,5.53
2019-05-05T01:36:16.506Z,5.55
2019-05-05T01:41:39.333Z,5.31
2019-05-05T01:44:08.394Z,5.34
2019-05-05T01:46:37.386Z,5.35
2019-05-05T01:49:06.736Z,5.33
2019-05-05T01:51:35.575Z,5.33
2019-05-05T01:54:05.178Z,5.16
2019-05-05T01:56:36.559Z,4.88
2019-05-05T01:59:05.721Z,4.66
2019-05-05T02:01:35.227Z,5.04
2019-05-05T02:04:05.735Z,4.78
2019-05-05T02:06:38.557Z,5.04
2019-05-05T02:09:09.766Z,5.13
2019-05-05T02:11:40.309Z,5.14
2019-05-05T02:14:09.420Z,5.17
2019-05-05T02:16:38.529Z,5.34
2019-05-05T02:19:07.589Z,5.34
2019-05-05T02:21:36.574Z,5.35
2019-05-05T02:24:06.129Z,5.05
2019-05-05T02:26:35.739Z,5.05
2019-05-05T02:29:16.585Z,5.39
2019-05-05T02:32:06.201Z,5.48
2019-05-05T02:34:37.781Z,5.48
2019-05-05T02:37:05.862Z,5.33
2019-05-05T02:39:39.286Z,5.44
2019-05-05T02:42:07.401Z,5.48
2019-05-05T02:44:39.060Z,5.27
2019-05-05T02:47:25.660Z,5.74
2019-05-05T02:49:59.293Z,5.55
2019-05-05T02:52:30.432Z,5.51
2019-05-05T02:55:00.886Z,5.51
2019-05-05T02:57:29.941Z,5.73
2019-05-05T03:00:13.402Z,5.95
2019-05-05T03:02:43.442Z,5.65
2019-05-05T03:05:14.312Z,5.69
2019-05-05T03:07:44.858Z,5.90
2019-05-05T03:10:14.607Z,5.97
2019-05-05T03:12:44.418Z,5.94
2019-05-05T03:15:34.000Z,5.94
2019-05-05T03:18:04.156Z,5.48
2019-05-05T03:20:34.336Z,5.59
2019-05-05T03:23:04.231Z,5.80
2019-05-05T03:25:33.903Z,5.89
2019-05-05T03:28:04.421Z,5.77
2019-05-05T03:30:35.628Z,5.06
2019-05-05T03:33:05.693Z,5.06
2019-05-05T03:35:35.587Z,5.46
2019-05-05T03:38:04.965Z,5.64
2019-05-05T03:40:36.611Z,5.64
2019-05-05T03:43:12.141Z,5.69
2019-05-05T03:45:45.563Z,5.69
2019-05-05T03:48:14.944Z,5.99
2019-05-05T03:50:44.626Z,5.99
2019-05-05T03:53:14.030Z,5.92
2019-05-05T03:55:45.442Z,6.08
2019-05-05T03:58:15.749Z,5.95
2019-05-05T04:01:37.292Z,5.95
2019-05-05T04:04:25.897Z,5.31
2019-05-05T04:06:55.605Z,5.60
2019-05-05T04:09:24.934Z,5.86
2019-05-05T04:11:54.171Z,5.86
2019-05-05T04:14:25.001Z,5.62
2019-05-05T04:17:14.156Z,5.42
2019-05-05T04:19:47.426Z,5.65
2019-05-05T04:22:16.422Z,5.58
2019-05-05T04:24:45.504Z,5.62
2019-05-05T04:27:14.827Z,5.78
2019-05-05T04:29:44.134Z,5.78
2019-05-05T04:32:14.031Z,5.72
2019-05-05T04:34:44.047Z,5.84
2019-05-05T04:37:14.980Z,5.89
2019-05-05T04:39:44.643Z,5.92
2019-05-05T04:42:14.081Z,5.44
2019-05-05T04:44:46.490Z,5.89
2019-05-05T04:47:23.666Z,6.16
2019-05-05T04:49:59.002Z,5.95
2019-05-05T04:52:28.571Z,5.93
2019-05-05T04:54:57.584Z,5.94
2019-05-05T04:57:26.715Z,5.83
2019-05-05T04:59:55.045Z,5.83
2019-05-05T05:02:35.569Z,6.04
2019-05-05T05:05:10.471Z,6.09
2019-05-05T05:07:39.921Z,6.33
2019-05-05T05:10:09.281Z,6.47
2019-05-05T05:12:38.533Z,6.25
2019-05-05T05:15:07.699Z,6.49
2019-05-05T05:17:44.748Z,6.73
2019-05-05T05:20:14.121Z,6.52
2019-05-05T05:22:43.993Z,6.68
2019-05-05T05:25:13.678Z,6.35
2019-05-05T05:27:44.325Z,5.87
2019-05-05T05:30:13.886Z,5.75
2019-05-05T05:32:44.549Z,5.75
2019-05-05T05:35:14.076Z,5.82
2019-05-05T05:37:44.726Z,6.00
2019-05-05T05:40:20.308Z,5.53
2019-05-05T05:42:49.725Z,5.61
2019-05-05T05:45:31.665Z,5.96
2019-05-05T05:48:11.436Z,5.79
2019-05-05T05:50:47.312Z,6.03
2019-05-05T05:53:16.264Z,6.11
2019-05-05T05:55:45.050Z,6.11
2019-05-05T05:58:14.207Z,6.48
2019-05-05T06:00:44.221Z,6.79
2019-05-05T06:03:14.064Z,6.19
2019-05-05T06:05:43.720Z,6.72
2019-05-05T06:08:14.118Z,7.13
2019-05-05T06:10:44.247Z,7.31
2019-05-05T06:13:16.871Z,6.29
2019-05-05T06:15:45.720Z,6.29
2019-05-05T06:18:14.056Z,6.51
2019-05-05T06:20:44.559Z,6.74
2019-05-05T06:23:15.707Z,6.99
2019-05-05T06:25:44.757Z,6.99
2019-05-05T06:28:16.009Z,7.07
2019-05-05T06:30:45.296Z,7.48
2019-05-05T06:33:14.981Z,7.61
2019-05-05T06:35:44.404Z,7.51
2019-05-05T06:38:13.770Z,7.32
2019-05-05T06:40:53.733Z,6.88
2019-05-05T06:43:31.658Z,6.79
2019-05-05T06:46:01.694Z,6.39
2019-05-05T06:48:31.123Z,6.44
2019-05-05T06:51:00.513Z,6.58
2019-05-05T06:53:29.471Z,7.51
2019-05-05T06:55:58.719Z,8.18
2019-05-05T06:58:27.034Z,8.18
2019-05-05T07:00:56.170Z,8.39
2019-05-05T07:03:29.664Z,8.44
2019-05-05T07:05:58.249Z,8.18
2019-05-05T07:08:26.843Z,7.26
2019-05-05T07:10:55.701Z,7.46
2019-05-05T07:13:24.475Z,7.58
2019-05-05T07:15:54.237Z,7.56
2019-05-05T07:18:24.664Z,7.45
2019-05-05T07:20:54.488Z,7.47
2019-05-05T07:23:24.661Z,7.57
2019-05-05T07:25:54.940Z,7.40
2019-05-05T07:28:24.060Z,7.69
2019-05-05T07:30:54.602Z,8.21
2019-05-05T07:33:23.929Z,8.89
2019-05-05T07:36:06.148Z,8.32
2019-05-05T07:38:35.429Z,8.01
2019-05-05T07:41:04.576Z,8.84
2019-05-05T07:43:34.525Z,9.27
2019-05-05T07:47:23.803Z,9.81
2019-05-05T07:49:53.701Z,10.76
2019-05-05T07:52:23.780Z,12.19
2019-05-05T07:54:54.954Z,12.32
2019-05-05T07:57:24.041Z,13.07
2019-05-05T07:59:54.056Z,12.91
2019-05-05T08:02:23.714Z,13.32
2019-05-05T08:04:54.471Z,13.17
2019-05-05T08:07:24.750Z,12.39
2019-05-05T08:09:53.940Z,12.39
2019-05-05T08:12:24.765Z,12.38
2019-05-05T08:14:54.091Z,13.13
2019-05-05T08:17:45.695Z,13.33
2019-05-05T08:20:20.221Z,13.57
2019-05-05T08:22:50.010Z,13.57
2019-05-05T08:25:37.520Z,14.14
2019-05-05T08:28:14.718Z,13.44
2019-05-05T08:31:05.317Z,13.44
2019-05-05T08:33:34.734Z,14.40
2019-05-05T08:36:04.598Z,14.17
2019-05-05T08:38:34.836Z,12.98
2019-05-05T08:41:04.627Z,11.95
2019-05-05T08:43:34.715Z,11.29
2019-05-05T08:46:05.867Z,12.18
2019-05-05T08:48:35.002Z,12.75
2019-05-05T08:51:04.985Z,12.48
2019-05-05T08:53:42.506Z,14.10
2019-05-05T08:56:05.289Z,14.42
2019-05-05T08:58:34.770Z,13.29
2019-05-05T09:01:04.524Z,14.39
2019-05-05T09:03:33.877Z,16.64
2019-05-05T09:06:04.691Z,16.64
2019-05-05T09:08:34.718Z,18.24
2019-05-05T09:11:04.863Z,18.81
2019-05-05T09:13:34.382Z,16.37
2019-05-05T09:16:04.044Z,15.36
2019-05-05T09:18:35.397Z,17.62
2019-05-05T09:21:05.761Z,19.91
2019-05-05T09:23:37.136Z,22.28
2019-05-05T09:26:19.723Z,22.89
2019-05-05T09:29:08.409Z,23.38
2019-05-05T09:31:37.811Z,21.91
2019-05-05T09:34:07.447Z,18.36
2019-05-05T09:36:37.303Z,19.40
2019-05-05T09:39:07.104Z,19.40
2019-05-05T09:41:36.491Z,20.42
2019-05-05T09:44:05.415Z,22.30
2019-05-05T09:46:35.072Z,20.67
2019-05-05T09:49:04.773Z,19.50
2019-05-05T09:51:34.840Z,18.77
2019-05-05T09:54:11.932Z,18.79
2019-05-05T09:56:35.908Z,20.24
2019-05-05T09:59:04.995Z,22.55
2019-05-05T10:01:34.317Z,23.16
2019-05-05T10:04:09.675Z,21.08
2019-05-05T10:06:40.476Z,18.43
2019-05-05T10:09:13.613Z,16.09
2019-05-05T10:11:44.816Z,20.18
2019-05-05T10:14:14.453Z,16.32
2019-05-05T10:16:43.301Z,17.89
2019-05-05T10:19:13.936Z,20.37
2019-05-05T10:21:44.357Z,20.54
2019-05-05T10:24:28.622Z,18.22
2019-05-05T10:26:54.364Z,17.47
2019-05-05T10:29:23.797Z,14.51
2019-05-05T10:31:53.930Z,14.51
2019-05-05T10:34:24.183Z,13.44
2019-05-05T10:36:53.649Z,14.89
2019-05-05T10:39:37.405Z,15.92
2019-05-05T10:42:06.715Z,15.92
2019-05-05T10:44:36.001Z,15.25
2019-05-05T10:47:05.302Z,14.38
2019-05-05T10:49:34.299Z,13.61
2019-05-05T10:52:03.984Z,12.62
2019-05-05T10:54:41.607Z,12.29
2019-05-05T10:57:05.613Z,13.69
2019-05-05T10:59:34.612Z,15.81
2019-05-05T11:02:04.859Z,17.26
2019-05-05T11:04:34.908Z,16.90
2019-05-05T11:07:04.475Z,17.19
2019-05-05T11:09:34.317Z,17.86
2019-05-05T11:12:03.690Z,18.21
2019-05-05T11:14:33.659Z,16.26
2019-05-05T11:17:04.194Z,16.14
2019-05-05T11:19:33.869Z,16.98
2019-05-05T11:22:03.097Z,15.22
2019-05-05T11:24:34.469Z,15.45
2019-05-05T11:27:04.465Z,16.76
2019-05-05T11:29:36.830Z,17.18
2019-05-05T11:32:15.292Z,17.18
2019-05-05T11:34:44.555Z,16.95
2019-05-05T11:37:16.892Z,16.07
2019-05-05T11:39:46.887Z,15.19
2019-05-05T11:42:17.475Z,14.67
2019-05-05T11:44:47.551Z,14.91
2019-05-05T11:47:16.032Z,14.78
2019-05-05T11:49:45.141Z,14.53
2019-05-05T11:52:14.028Z,14.23
2019-05-05T11:54:43.894Z,13.16
2019-05-05T11:57:13.557Z,13.61
2019-05-05T11:59:41.929Z,14.05
2019-05-05T12:02:11.066Z,14.28
2019-05-05T12:04:40.117Z,13.41
2019-05-05T12:07:09.006Z,13.52
2019-05-05T12:09:49.449Z,13.66
2019-05-05T12:12:18.699Z,14.13
2019-05-05T12:14:48.256Z,13.63
2019-05-05T12:17:33.758Z,13.29
2019-05-05T12:20:05.961Z,13.44
2019-05-05T12:22:34.938Z,12.92
2019-05-05T12:25:08.575Z,12.26
2019-05-05T12:27:59.819Z,10.77
2019-05-05T12:30:29.132Z,10.77
2019-05-05T12:32:59.048Z,11.36
2019-05-05T12:35:28.475Z,12.24
2019-05-05T12:38:01.174Z,13.48
2019-05-05T12:40:29.941Z,14.06
2019-05-05T12:42:59.133Z,15.51
2019-05-05T12:45:30.933Z,16.72
2019-05-05T12:48:27.024Z,17.70
2019-05-05T12:50:58.695Z,17.58
2019-05-05T12:53:28.529Z,17.62
2019-05-05T12:55:57.604Z,17.92
2019-05-05T12:58:27.140Z,17.88
2019-05-05T13:01:06.512Z,17.88
2019-05-05T13:03:36.977Z,18.46
2019-05-05T13:06:06.472Z,18.46
2019-05-05T13:08:35.949Z,18.47
2019-05-05T13:11:05.650Z,15.96
2019-05-05T13:13:34.554Z,15.59
2019-05-05T13:16:04.400Z,15.39
2019-05-05T13:18:34.040Z,15.16
2019-05-05T13:21:14.057Z,15.90
2019-05-05T13:24:04.399Z,16.58
2019-05-05T13:26:46.466Z,16.12
2019-05-05T13:29:15.907Z,16.93
2019-05-05T13:31:46.118Z,16.93
2019-05-05T13:34:15.542Z,17.47
2019-05-05T13:36:44.739Z,14.52
2019-05-05T13:39:14.411Z,14.52
2019-05-05T13:41:44.898Z,14.06
2019-05-05T13:44:24.136Z,14.95
2019-05-05T13:46:54.634Z,15.82
2019-05-05T13:49:32.902Z,16.78
2019-05-05T13:52:04.662Z,15.39
2019-05-05T13:54:33.987Z,15.43
2019-05-05T13:57:03.867Z,16.00
2019-05-05T13:59:33.934Z,15.16
2019-05-05T14:02:03.566Z,16.44
2019-05-05T14:04:31.861Z,15.59
2019-05-05T14:07:00.958Z,14.48
2019-05-05T14:09:30.060Z,15.19
2019-05-05T14:11:59.105Z,13.34
2019-05-05T14:14:28.032Z,11.77
2019-05-05T14:16:57.398Z,12.48
2019-05-05T14:19:26.447Z,13.12
2019-05-05T14:21:55.459Z,12.44
2019-05-05T14:24:44.349Z,12.38
2019-05-05T14:27:14.464Z,13.11
2019-05-05T14:29:52.610Z,13.84
2019-05-05T14:32:24.000Z,13.74
2019-05-05T14:35:00.871Z,13.74
2019-05-05T14:37:37.494Z,14.18
2019-05-05T14:40:07.630Z,13.24
2019-05-05T14:42:36.686Z,13.63
2019-05-05T14:45:06.064Z,13.79
2019-05-05T14:47:36.413Z,13.07
2019-05-05T14:50:06.626Z,12.03
2019-05-05T14:52:34.963Z,13.30
2019-05-05T14:55:05.618Z,13.77
2019-05-05T14:57:34.266Z,13.66
2019-05-05T15:00:04.822Z,13.60
2019-05-05T15:02:34.803Z,14.08
2019-05-05T15:05:24.428Z,14.26
2019-05-05T15:08:13.591Z,13.79
2019-05-05T15:10:47.635Z,13.57
2019-05-05T15:13:17.118Z,14.30
2019-05-05T15:15:46.517Z,14.30
2019-05-05T15:18:15.945Z,15.10
2019-05-05T15:20:45.120Z,15.10
2019-05-05T15:23:13.963Z,15.52
2019-05-05T15:25:44.607Z,16.05
2019-05-05T15:28:13.973Z,15.60
2019-05-05T15:30:44.090Z,15.68
2019-05-05T15:33:14.758Z,15.96
2019-05-05T15:35:46.500Z,16.36
2019-05-05T15:38:15.293Z,16.76
2019-05-05T15:40:47.780Z,16.05
2019-05-05T15:43:15.653Z,15.68
2019-05-05T15:45:45.168Z,15.74
2019-05-05T15:48:14.591Z,15.74
2019-05-05T15:50:44.289Z,15.31
2019-05-05T15:53:14.377Z,15.31
2019-05-05T15:55:43.897Z,15.32
2019-05-05T15:58:14.181Z,13.16
2019-05-05T16:00:44.341Z,13.17
2019-05-05T16:03:13.729Z,13.67
2019-05-05T16:05:43.650Z,13.80
2019-05-05T16:08:14.098Z,13.84
2019-05-05T16:10:46.178Z,13.82
2019-05-05T16:13:14.668Z,14.03
2019-05-05T16:16:05.241Z,14.03
2019-05-05T16:18:48.370Z,14.03
2019-05-05T16:21:35.842Z,14.02
2019-05-05T16:24:13.982Z,14.02
2019-05-05T16:26:43.547Z,13.90
2019-05-05T16:29:14.805Z,13.80
2019-05-05T16:31:45.491Z,13.80
2019-05-05T16:34:14.829Z,13.58
2019-05-05T16:36:44.467Z,13.15
2019-05-05T16:39:16.286Z,13.05
2019-05-05T16:41:44.396Z,13.05
2019-05-05T16:44:14.133Z,13.64
2019-05-05T16:46:44.958Z,12.93
2019-05-05T16:49:15.299Z,12.93
2019-05-05T16:51:51.440Z,12.91
2019-05-05T16:54:26.970Z,13.11
2019-05-05T16:56:56.762Z,13.43
2019-05-05T16:59:26.031Z,13.90
2019-05-05T17:01:56.504Z,14.14
2019-05-05T17:04:26.130Z,13.47
2019-05-05T17:06:56.033Z,13.48
2019-05-05T17:09:26.522Z,13.60
2019-05-05T17:12:08.466Z,13.71
2019-05-05T17:14:57.824Z,13.46
2019-05-05T17:17:38.063Z,13.35
2019-05-05T17:20:13.870Z,13.24
2019-05-05T17:23:04.536Z,13.10
2019-05-05T17:25:34.291Z,13.18
2019-05-05T17:28:04.560Z,13.19
2019-05-05T17:30:34.154Z,13.08
2019-05-05T17:33:03.867Z,12.67
2019-05-05T17:35:34.153Z,12.45
2019-05-05T17:38:13.734Z,12.20
2019-05-05T17:41:03.687Z,12.35
2019-05-05T17:43:55.417Z,11.75
2019-05-05T17:46:47.515Z,11.91
2019-05-05T17:49:27.645Z,11.88
2019-05-05T17:52:04.026Z,12.00
2019-05-05T17:54:35.986Z,11.78
2019-05-05T17:57:05.169Z,11.68
2019-05-05T17:59:34.628Z,11.52
2019-05-05T18:02:04.805Z,11.71
2019-05-05T18:04:34.178Z,11.56
2019-05-05T18:07:31.808Z,11.52
2019-05-05T18:10:26.408Z,11.26
2019-05-05T18:13:24.945Z,11.21
2019-05-05T18:15:57.920Z,10.95
2019-05-05T18:18:27.454Z,10.94
2019-05-05T18:20:56.742Z,10.73
2019-05-05T18:23:25.952Z,10.63
2019-05-05T18:25:56.056Z,10.53
2019-05-05T18:28:25.640Z,10.23
2019-05-05T18:30:54.614Z,9.64
2019-05-05T18:33:24.679Z,9.64
2019-05-05T18:35:54.177Z,9.50
2019-05-05T18:38:23.959Z,9.17
2019-05-05T18:40:55.151Z,9.05
2019-05-05T18:43:48.481Z,8.85
2019-05-05T18:46:18.050Z,8.25
2019-05-05T18:48:47.308Z,8.25
2019-05-05T18:51:18.153Z,7.89
2019-05-05T18:53:48.056Z,7.89
2019-05-05T18:56:17.483Z,7.86
2019-05-05T18:58:54.347Z,7.73
2019-05-05T19:01:42.028Z,7.81
2019-05-05T19:04:26.458Z,7.57
2019-05-05T19:07:10.203Z,7.44
2019-05-05T19:09:51.033Z,7.23
2019-05-05T19:12:11.295Z,7.19
2019-05-05T19:14:40.629Z,7.23
2019-05-05T19:17:09.573Z,7.09
2019-05-05T19:19:41.725Z,6.92
2019-05-05T19:22:13.820Z,6.92
2019-05-05T19:24:44.061Z,7.10
2019-05-05T19:27:14.214Z,7.12
2019-05-05T19:31:20.576Z,7.01
2019-05-05T19:33:49.762Z,7.05
2019-05-05T19:36:18.748Z,7.05
2019-05-05T19:38:47.882Z,7.16
2019-05-05T19:41:17.303Z,6.97
2019-05-05T19:43:54.833Z,6.79
2019-05-05T19:46:35.542Z,6.84
2019-05-05T19:49:14.818Z,6.93
2019-05-05T19:51:44.646Z,6.93
2019-05-05T19:54:15.065Z,6.73
2019-05-05T19:56:45.251Z,6.61
2019-05-05T19:59:16.362Z,6.59
2019-05-05T20:01:45.475Z,6.52
2019-05-05T20:04:15.153Z,5.72
2019-05-05T20:06:44.617Z,5.72
2019-05-05T20:09:14.491Z,5.86
2019-05-05T20:11:43.913Z,5.70
2019-05-05T20:14:15.085Z,6.27
2019-05-05T20:17:04.586Z,6.07
2019-05-05T20:19:44.867Z,5.77
2019-05-05T20:22:15.307Z,5.60
2019-05-05T20:24:44.832Z,5.75
2019-05-05T20:27:14.438Z,5.86
2019-05-05T20:29:43.978Z,5.90
2019-05-05T20:32:14.526Z,5.86
2019-05-05T20:34:55.836Z,6.05
2019-05-05T20:37:31.037Z,5.85
2019-05-05T20:40:00.767Z,5.43
2019-05-05T20:42:28.945Z,5.30
2019-05-05T20:44:58.116Z,5.39
2019-05-05T20:47:27.340Z,5.50
2019-05-05T20:49:56.581Z,5.50
2019-05-05T20:52:25.586Z,5.33
2019-05-05T20:54:54.771Z,5.33
2019-05-05T20:57:24.299Z,5.23
2019-05-05T20:59:53.572Z,5.09
2019-05-05T21:02:24.326Z,5.18
2019-05-05T21:04:54.106Z,5.27
2019-05-05T21:07:26.459Z,5.27
2019-05-05T21:09:54.461Z,5.13
2019-05-05T21:12:24.614Z,5.00
2019-05-05T21:14:54.055Z,4.89
2019-05-05T21:17:24.221Z,4.70
2019-05-05T21:19:53.115Z,4.77
2019-05-05T21:22:38.608Z,4.84
2019-05-05T21:25:23.917Z,4.71
2019-05-05T21:27:53.121Z,4.68
2019-05-05T21:30:25.290Z,5.52
2019-05-05T21:32:57.449Z,5.29
2019-05-05T21:35:27.262Z,5.06
2019-05-05T21:37:56.011Z,4.89
2019-05-05T21:40:26.408Z,4.72
2019-05-05T21:42:55.412Z,4.57
2019-05-05T21:45:24.663Z,4.42
2019-05-05T21:47:55.000Z,4.28
2019-05-05T21:50:30.083Z,4.28
2019-05-05T21:53:08.387Z,4.28
2019-05-05T21:55:43.940Z,4.06
2019-05-05T21:58:24.720Z,3.79
2019-05-05T22:01:15.441Z,4.24
2019-05-05T22:03:45.012Z,3.91
2019-05-05T22:06:14.601Z,3.91
2019-05-05T22:08:44.594Z,3.82
2019-05-05T22:11:14.797Z,3.67
2019-05-05T22:13:44.351Z,3.67
2019-05-05T22:16:13.852Z,3.53
2019-05-05T22:18:44.650Z,3.40
2019-05-05T22:21:35.646Z,2.97
2019-05-05T22:24:18.496Z,2.98
2019-05-05T22:26:47.795Z,2.98
2019-05-05T22:29:17.596Z,2.96
2019-05-05T22:31:46.824Z,3.19
2019-05-05T22:34:18.977Z,3.19
2019-05-05T22:36:48.110Z,3.30
2019-05-05T22:39:17.347Z,3.44
2019-05-05T22:41:46.448Z,3.49
2019-05-05T22:44:15.729Z,3.58
2019-05-05T22:46:43.898Z,3.34
2019-05-05T22:49:14.726Z,3.20
2019-05-05T22:51:44.762Z,3.13
2019-05-05T22:54:14.964Z,2.82
2019-05-05T22:56:44.801Z,2.67
2019-05-05T22:59:14.114Z,2.91
2019-05-05T23:01:42.993Z,3.02
2019-05-05T23:04:46.505Z,2.97
2019-05-05T23:07:31.930Z,2.98
2019-05-05T23:10:01.059Z,3.24
2019-05-05T23:12:30.456Z,2.91
2019-05-05T23:15:00.749Z,2.82
2019-05-05T23:17:43.782Z,2.91
2019-05-05T23:21:11.116Z,3.06
2019-05-05T23:23:55.821Z,2.93
2019-05-05T23:26:24.598Z,3.38
2019-05-05T23:28:53.780Z,3.26
2019-05-05T23:31:24.131Z,3.26
2019-05-05T23:33:54.836Z,3.25
2019-05-05T23:36:26.623Z,3.24
2019-05-05T23:38:56.857Z,2.91
2019-05-05T23:41:26.800Z,2.91
2019-05-05T23:43:54.900Z,2.72
2019-05-05T23:46:25.158Z,2.70
2019-05-05T23:48:55.538Z,2.49
2019-05-05T23:51:24.501Z,2.33
2019-05-05T23:53:55.097Z,2.31
2019-05-05T23:56:26.694Z,2.19
2019-05-05T23:58:55.094Z,2.16
